sensor_id;sensor_type;location;lat;lon;timestamp;temperature;humidity
54622;DHT22;40521;53.146;6.556;2022-11-20T00:00:24;-1.90;99.90
54622;DHT22;40521;53.146;6.556;2022-11-20T00:02:50;0.00;99.90
54622;DHT22;40521;53.146;6.556;2022-11-20T00:05:16;-1.80;99.90
54622;DHT22;40521;53.146;6.556;2022-11-20T00:07:42;0.10;99.90
54622;DHT22;40521;53.146;6.556;2022-11-20T00:10:07;-0.70;99.90
54622;DHT22;40521;53.146;6.556;2022-11-20T00:12:33;-1.70;99.90
54622;DHT22;40521;53.146;6.556;2022-11-20T00:14:59;-1.80;99.90
54622;DHT22;40521;53.146;6.556;2022-11-20T00:17:25;-1.60;99.90
54622;DHT22;40521;53.146;6.556;2022-11-20T00:19:50;0.00;99.90
54622;DHT22;40521;53.146;6.556;2022-11-20T00:22:16;-0.50;99.90
54622;DHT22;40521;53.146;6.556;2022-11-20T00:24:41;-1.70;99.90
54622;DHT22;40521;53.146;6.556;2022-11-20T00:27:07;0.00;99.90
54622;DHT22;40521;53.146;6.556;2022-11-20T00:29:32;-0.80;99.90
54622;DHT22;40521;53.146;6.556;2022-11-20T00:31:58;0.10;99.90
54622;DHT22;40521;53.146;6.556;2022-11-20T00:34:24;-1.70;99.90
54622;DHT22;40521;53.146;6.556;2022-11-20T00:36:49;-0.80;99.90
54622;DHT22;40521;53.146;6.556;2022-11-20T00:39:15;-1.70;99.90
54622;DHT22;40521;53.146;6.556;2022-11-20T00:41:40;0.20;99.90
54622;DHT22;40521;53.146;6.556;2022-11-20T00:44:06;0.10;99.90
54622;DHT22;40521;53.146;6.556;2022-11-20T00:46:31;-0.10;99.90
54622;DHT22;40521;53.146;6.556;2022-11-20T00:48:57;0.30;99.90
54622;DHT22;40521;53.146;6.556;2022-11-20T00:51:24;-3.00;99.90
54622;DHT22;40521;53.146;6.556;2022-11-20T00:53:50;-1.40;99.90
54622;DHT22;40521;53.146;6.556;2022-11-20T00:56:16;-0.30;99.90
54622;DHT22;40521;53.146;6.556;2022-11-20T00:58:44;0.30;99.90
54622;DHT22;40521;53.146;6.556;2022-11-20T01:01:11;-0.80;99.90
54622;DHT22;40521;53.146;6.556;2022-11-20T01:03:38;-0.30;99.90
54622;DHT22;40521;53.146;6.556;2022-11-20T01:06:15;-1.50;99.90
54622;DHT22;40521;53.146;6.556;2022-11-20T01:08:40;-1.50;99.90
54622;DHT22;40521;53.146;6.556;2022-11-20T01:11:08;-1.50;99.90
54622;DHT22;40521;53.146;6.556;2022-11-20T01:13:34;-0.40;99.90
54622;DHT22;40521;53.146;6.556;2022-11-20T01:16:22;-0.40;99.90
54622;DHT22;40521;53.146;6.556;2022-11-20T01:18:49;-1.40;99.90
54622;DHT22;40521;53.146;6.556;2022-11-20T01:21:16;0.20;99.90
54622;DHT22;40521;53.146;6.556;2022-11-20T01:23:42;-1.40;99.90
54622;DHT22;40521;53.146;6.556;2022-11-20T01:26:12;-1.40;99.90
54622;DHT22;40521;53.146;6.556;2022-11-20T01:28:38;-1.40;99.90
54622;DHT22;40521;53.146;6.556;2022-11-20T01:31:14;0.20;99.90
54622;DHT22;40521;53.146;6.556;2022-11-20T01:33:39;-1.40;99.90
54622;DHT22;40521;53.146;6.556;2022-11-20T01:36:06;-1.40;99.90
54622;DHT22;40521;53.146;6.556;2022-11-20T01:38:31;-1.40;99.90
54622;DHT22;40521;53.146;6.556;2022-11-20T01:40:57;-1.40;99.90
54622;DHT22;40521;53.146;6.556;2022-11-20T01:43:23;-1.40;99.90
54622;DHT22;40521;53.146;6.556;2022-11-20T01:48:22;-1.30;99.90
54622;DHT22;40521;53.146;6.556;2022-11-20T01:50:49;0.50;99.90
54622;DHT22;40521;53.146;6.556;2022-11-20T01:53:16;0.60;99.90
54622;DHT22;40521;53.146;6.556;2022-11-20T01:55:44;0.40;99.90
54622;DHT22;40521;53.146;6.556;2022-11-20T01:58:10;-1.30;99.90
54622;DHT22;40521;53.146;6.556;2022-11-20T02:00:37;-1.30;99.90
54622;DHT22;40521;53.146;6.556;2022-11-20T02:03:07;0.00;99.90
54622;DHT22;40521;53.146;6.556;2022-11-20T02:05:35;-1.30;99.90
54622;DHT22;40521;53.146;6.556;2022-11-20T02:08:02;-0.10;99.90
54622;DHT22;40521;53.146;6.556;2022-11-20T02:10:28;-1.00;99.90
54622;DHT22;40521;53.146;6.556;2022-11-20T02:12:54;0.50;99.90
54622;DHT22;40521;53.146;6.556;2022-11-20T02:15:39;-1.20;99.90
54622;DHT22;40521;53.146;6.556;2022-11-20T02:18:05;-1.30;99.90
54622;DHT22;40521;53.146;6.556;2022-11-20T02:20:31;-0.90;99.90
54622;DHT22;40521;53.146;6.556;2022-11-20T02:25:23;0.20;99.90
54622;DHT22;40521;53.146;6.556;2022-11-20T02:27:49;-1.20;99.90
54622;DHT22;40521;53.146;6.556;2022-11-20T02:30:16;-0.80;99.90
54622;DHT22;40521;53.146;6.556;2022-11-20T02:32:41;-1.20;99.90
54622;DHT22;40521;53.146;6.556;2022-11-20T02:35:38;-0.90;99.90
54622;DHT22;40521;53.146;6.556;2022-11-20T02:37:54;-1.20;99.90
54622;DHT22;40521;53.146;6.556;2022-11-20T02:40:20;-0.10;99.90
54622;DHT22;40521;53.146;6.556;2022-11-20T02:42:45;0.20;99.90
54622;DHT22;40521;53.146;6.556;2022-11-20T02:45:11;0.30;99.90
54622;DHT22;40521;53.146;6.556;2022-11-20T02:47:37;0.00;99.90
54622;DHT22;40521;53.146;6.556;2022-11-20T02:50:03;0.40;99.90
54622;DHT22;40521;53.146;6.556;2022-11-20T02:52:29;-1.20;99.90
54622;DHT22;40521;53.146;6.556;2022-11-20T02:54:55;-0.10;99.90
54622;DHT22;40521;53.146;6.556;2022-11-20T02:57:20;0.30;99.90
54622;DHT22;40521;53.146;6.556;2022-11-20T02:59:46;-1.10;99.90
54622;DHT22;40521;53.146;6.556;2022-11-20T03:02:12;-0.30;99.90
54622;DHT22;40521;53.146;6.556;2022-11-20T03:04:37;-1.10;99.90
54622;DHT22;40521;53.146;6.556;2022-11-20T03:07:03;-1.10;99.90
54622;DHT22;40521;53.146;6.556;2022-11-20T03:09:29;-0.10;99.90
54622;DHT22;40521;53.146;6.556;2022-11-20T03:11:54;-1.00;99.90
54622;DHT22;40521;53.146;6.556;2022-11-20T03:14:20;0.30;99.90
54622;DHT22;40521;53.146;6.556;2022-11-20T03:16:46;-1.00;99.90
54622;DHT22;40521;53.146;6.556;2022-11-20T03:19:12;0.20;99.90
54622;DHT22;40521;53.146;6.556;2022-11-20T03:21:37;-0.70;99.90
54622;DHT22;40521;53.146;6.556;2022-11-20T03:24:03;-0.20;99.90
54622;DHT22;40521;53.146;6.556;2022-11-20T03:26:28;-0.90;99.90
54622;DHT22;40521;53.146;6.556;2022-11-20T03:28:55;-0.70;99.90
54622;DHT22;40521;53.146;6.556;2022-11-20T03:31:22;-1.00;99.90
54622;DHT22;40521;53.146;6.556;2022-11-20T03:33:48;-0.90;99.90
54622;DHT22;40521;53.146;6.556;2022-11-20T03:36:14;-1.00;99.90
54622;DHT22;40521;53.146;6.556;2022-11-20T03:38:40;-0.90;99.90
54622;DHT22;40521;53.146;6.556;2022-11-20T03:41:14;-0.90;99.90
54622;DHT22;40521;53.146;6.556;2022-11-20T03:43:39;-1.00;99.90
54622;DHT22;40521;53.146;6.556;2022-11-20T03:46:05;0.20;99.90
54622;DHT22;40521;53.146;6.556;2022-11-20T03:48:31;1.00;99.90
54622;DHT22;40521;53.146;6.556;2022-11-20T03:51:16;-0.30;99.90
54622;DHT22;40521;53.146;6.556;2022-11-20T03:53:42;-0.90;99.90
54622;DHT22;40521;53.146;6.556;2022-11-20T03:56:09;-0.20;99.90
54622;DHT22;40521;53.146;6.556;2022-11-20T03:58:35;-0.90;99.90
54622;DHT22;40521;53.146;6.556;2022-11-20T04:01:17;0.40;99.90
54622;DHT22;40521;53.146;6.556;2022-11-20T04:03:43;-0.90;99.90
54622;DHT22;40521;53.146;6.556;2022-11-20T04:06:17;0.70;99.90
54622;DHT22;40521;53.146;6.556;2022-11-20T04:08:43;-0.90;99.90
54622;DHT22;40521;53.146;6.556;2022-11-20T04:11:16;0.60;99.90
54622;DHT22;40521;53.146;6.556;2022-11-20T04:13:42;-0.90;99.90
54622;DHT22;40521;53.146;6.556;2022-11-20T04:16:08;-0.90;99.90
54622;DHT22;40521;53.146;6.556;2022-11-20T04:18:34;-0.90;99.90
54622;DHT22;40521;53.146;6.556;2022-11-20T04:21:00;0.50;99.90
54622;DHT22;40521;53.146;6.556;2022-11-20T04:23:26;-0.90;99.90
54622;DHT22;40521;53.146;6.556;2022-11-20T04:25:52;-0.90;99.90
54622;DHT22;40521;53.146;6.556;2022-11-20T04:28:17;-0.80;99.90
54622;DHT22;40521;53.146;6.556;2022-11-20T04:30:43;-0.20;99.90
54622;DHT22;40521;53.146;6.556;2022-11-20T04:33:08;-0.80;99.90
54622;DHT22;40521;53.146;6.556;2022-11-20T04:35:34;-0.80;99.90
54622;DHT22;40521;53.146;6.556;2022-11-20T04:38:00;-0.80;99.90
54622;DHT22;40521;53.146;6.556;2022-11-20T04:40:27;-0.70;99.90
54622;DHT22;40521;53.146;6.556;2022-11-20T04:42:52;-0.80;99.90
54622;DHT22;40521;53.146;6.556;2022-11-20T04:45:18;0.80;99.90
54622;DHT22;40521;53.146;6.556;2022-11-20T04:47:43;-0.70;99.90
54622;DHT22;40521;53.146;6.556;2022-11-20T04:50:09;-0.70;99.90
54622;DHT22;40521;53.146;6.556;2022-11-20T04:52:35;0.90;99.90
54622;DHT22;40521;53.146;6.556;2022-11-20T04:55:00;-0.70;99.90
54622;DHT22;40521;53.146;6.556;2022-11-20T04:57:26;0.60;99.90
54622;DHT22;40521;53.146;6.556;2022-11-20T04:59:51;-0.80;99.90
54622;DHT22;40521;53.146;6.556;2022-11-20T05:02:17;0.00;99.90
54622;DHT22;40521;53.146;6.556;2022-11-20T05:04:43;-0.70;99.90
54622;DHT22;40521;53.146;6.556;2022-11-20T05:07:08;-0.70;99.90
54622;DHT22;40521;53.146;6.556;2022-11-20T05:09:34;-0.30;99.90
54622;DHT22;40521;53.146;6.556;2022-11-20T05:11:59;-1.30;99.90
54622;DHT22;40521;53.146;6.556;2022-11-20T05:14:25;0.00;99.90
54622;DHT22;40521;53.146;6.556;2022-11-20T05:16:51;0.40;99.90
54622;DHT22;40521;53.146;6.556;2022-11-20T05:19:16;1.10;99.90
54622;DHT22;40521;53.146;6.556;2022-11-20T05:21:42;0.60;99.90
54622;DHT22;40521;53.146;6.556;2022-11-20T05:24:07;0.00;99.90
54622;DHT22;40521;53.146;6.556;2022-11-20T05:26:33;-0.70;99.90
54622;DHT22;40521;53.146;6.556;2022-11-20T05:28:59;0.50;99.90
54622;DHT22;40521;53.146;6.556;2022-11-20T05:31:24;1.10;99.90
54622;DHT22;40521;53.146;6.556;2022-11-20T05:33:50;0.90;99.90
54622;DHT22;40521;53.146;6.556;2022-11-20T05:36:16;0.40;99.90
54622;DHT22;40521;53.146;6.556;2022-11-20T05:38:42;-0.40;99.90
54622;DHT22;40521;53.146;6.556;2022-11-20T05:41:09;-0.80;99.90
54622;DHT22;40521;53.146;6.556;2022-11-20T05:43:35;0.80;99.90
54622;DHT22;40521;53.146;6.556;2022-11-20T05:46:01;-0.70;99.90
54622;DHT22;40521;53.146;6.556;2022-11-20T05:48:27;0.80;99.90
54622;DHT22;40521;53.146;6.556;2022-11-20T05:50:53;1.30;99.90
54622;DHT22;40521;53.146;6.556;2022-11-20T05:53:18;-0.60;99.90
54622;DHT22;40521;53.146;6.556;2022-11-20T05:55:44;-0.60;99.90
54622;DHT22;40521;53.146;6.556;2022-11-20T05:58:10;0.90;99.90
54622;DHT22;40521;53.146;6.556;2022-11-20T06:00:35;1.20;99.90
54622;DHT22;40521;53.146;6.556;2022-11-20T06:03:01;-0.60;99.90
54622;DHT22;40521;53.146;6.556;2022-11-20T06:05:27;0.70;99.90
54622;DHT22;40521;53.146;6.556;2022-11-20T06:07:52;0.80;99.90
54622;DHT22;40521;53.146;6.556;2022-11-20T06:10:18;-0.60;99.90
54622;DHT22;40521;53.146;6.556;2022-11-20T06:12:43;-0.60;99.90
54622;DHT22;40521;53.146;6.556;2022-11-20T06:15:09;1.20;99.90
54622;DHT22;40521;53.146;6.556;2022-11-20T06:17:35;-0.60;99.90
54622;DHT22;40521;53.146;6.556;2022-11-20T06:20:00;-0.20;99.90
54622;DHT22;40521;53.146;6.556;2022-11-20T06:22:26;-0.60;99.90
54622;DHT22;40521;53.146;6.556;2022-11-20T06:24:51;-0.60;99.90
54622;DHT22;40521;53.146;6.556;2022-11-20T06:27:17;-0.60;99.90
54622;DHT22;40521;53.146;6.556;2022-11-20T06:29:43;-0.70;99.90
54622;DHT22;40521;53.146;6.556;2022-11-20T06:32:08;1.10;99.90
54622;DHT22;40521;53.146;6.556;2022-11-20T06:34:34;-0.60;99.90
54622;DHT22;40521;53.146;6.556;2022-11-20T06:36:59;1.10;99.90
54622;DHT22;40521;53.146;6.556;2022-11-20T06:39:25;0.80;99.90
54622;DHT22;40521;53.146;6.556;2022-11-20T06:41:50;-0.20;99.90
54622;DHT22;40521;53.146;6.556;2022-11-20T06:44:16;0.90;99.90
54622;DHT22;40521;53.146;6.556;2022-11-20T06:46:42;0.10;99.90
54622;DHT22;40521;53.146;6.556;2022-11-20T06:49:07;-0.60;99.90
54622;DHT22;40521;53.146;6.556;2022-11-20T06:51:33;-0.60;99.90
54622;DHT22;40521;53.146;6.556;2022-11-20T06:53:58;-0.60;99.90
54622;DHT22;40521;53.146;6.556;2022-11-20T06:56:26;-0.50;99.90
54622;DHT22;40521;53.146;6.556;2022-11-20T06:58:52;-0.50;99.90
54622;DHT22;40521;53.146;6.556;2022-11-20T07:01:17;-0.50;99.90
54622;DHT22;40521;53.146;6.556;2022-11-20T07:03:43;1.00;99.90
54622;DHT22;40521;53.146;6.556;2022-11-20T07:06:09;0.80;99.90
54622;DHT22;40521;53.146;6.556;2022-11-20T07:08:34;0.80;99.90
54622;DHT22;40521;53.146;6.556;2022-11-20T07:11:01;0.90;99.90
54622;DHT22;40521;53.146;6.556;2022-11-20T07:13:27;-0.40;99.90
54622;DHT22;40521;53.146;6.556;2022-11-20T07:15:53;0.10;99.90
54622;DHT22;40521;53.146;6.556;2022-11-20T07:18:19;1.40;99.90
54622;DHT22;40521;53.146;6.556;2022-11-20T07:20:44;1.30;99.90
54622;DHT22;40521;53.146;6.556;2022-11-20T07:23:10;-0.40;99.90
54622;DHT22;40521;53.146;6.556;2022-11-20T07:25:35;-0.40;99.90
54622;DHT22;40521;53.146;6.556;2022-11-20T07:28:01;0.50;99.90
54622;DHT22;40521;53.146;6.556;2022-11-20T07:30:27;1.30;99.90
54622;DHT22;40521;53.146;6.556;2022-11-20T07:32:53;-0.30;99.90
54622;DHT22;40521;53.146;6.556;2022-11-20T07:35:19;0.50;99.90
54622;DHT22;40521;53.146;6.556;2022-11-20T07:37:44;-0.30;99.90
54622;DHT22;40521;53.146;6.556;2022-11-20T07:40:12;0.70;99.90
54622;DHT22;40521;53.146;6.556;2022-11-20T07:42:37;-0.30;99.90
54622;DHT22;40521;53.146;6.556;2022-11-20T07:45:03;-0.30;99.90
54622;DHT22;40521;53.146;6.556;2022-11-20T07:47:29;-0.30;99.90
54622;DHT22;40521;53.146;6.556;2022-11-20T07:49:59;0.80;99.90
54622;DHT22;40521;53.146;6.556;2022-11-20T07:52:25;1.90;99.90
54622;DHT22;40521;53.146;6.556;2022-11-20T07:54:50;-0.30;99.90
54622;DHT22;40521;53.146;6.556;2022-11-20T07:57:16;-0.20;99.90
54622;DHT22;40521;53.146;6.556;2022-11-20T07:59:42;-0.30;99.90
54622;DHT22;40521;53.146;6.556;2022-11-20T08:02:09;-0.20;99.90
54622;DHT22;40521;53.146;6.556;2022-11-20T08:04:35;0.80;99.90
54622;DHT22;40521;53.146;6.556;2022-11-20T08:07:00;-0.20;99.90
54622;DHT22;40521;53.146;6.556;2022-11-20T08:09:27;-0.10;99.90
54622;DHT22;40521;53.146;6.556;2022-11-20T08:11:54;1.00;99.90
54622;DHT22;40521;53.146;6.556;2022-11-20T08:14:38;1.40;99.90
54622;DHT22;40521;53.146;6.556;2022-11-20T08:17:04;0.00;99.90
54622;DHT22;40521;53.146;6.556;2022-11-20T08:19:29;0.00;99.90
54622;DHT22;40521;53.146;6.556;2022-11-20T08:21:55;1.70;99.90
54622;DHT22;40521;53.146;6.556;2022-11-20T08:24:20;0.90;99.90
54622;DHT22;40521;53.146;6.556;2022-11-20T08:26:46;1.90;99.90
54622;DHT22;40521;53.146;6.556;2022-11-20T08:29:11;0.00;99.90
54622;DHT22;40521;53.146;6.556;2022-11-20T08:31:37;1.20;99.90
54622;DHT22;40521;53.146;6.556;2022-11-20T08:34:03;1.90;99.90
54622;DHT22;40521;53.146;6.556;2022-11-20T08:36:32;1.70;99.90
54622;DHT22;40521;53.146;6.556;2022-11-20T08:38:57;1.70;99.90
54622;DHT22;40521;53.146;6.556;2022-11-20T08:41:23;1.60;99.90
54622;DHT22;40521;53.146;6.556;2022-11-20T08:43:49;0.70;99.90
54622;DHT22;40521;53.146;6.556;2022-11-20T08:46:15;0.00;99.90
54622;DHT22;40521;53.146;6.556;2022-11-20T08:48:40;1.60;99.90
54622;DHT22;40521;53.146;6.556;2022-11-20T08:51:06;1.30;99.90
54622;DHT22;40521;53.146;6.556;2022-11-20T08:53:31;1.10;99.90
54622;DHT22;40521;53.146;6.556;2022-11-20T08:55:57;0.30;99.90
54622;DHT22;40521;53.146;6.556;2022-11-20T08:58:23;1.30;99.90
54622;DHT22;40521;53.146;6.556;2022-11-20T09:00:49;0.20;99.90
54622;DHT22;40521;53.146;6.556;2022-11-20T09:03:14;0.20;99.90
54622;DHT22;40521;53.146;6.556;2022-11-20T09:05:40;1.00;99.90
54622;DHT22;40521;53.146;6.556;2022-11-20T09:08:06;0.20;99.90
54622;DHT22;40521;53.146;6.556;2022-11-20T09:10:31;1.30;99.90
54622;DHT22;40521;53.146;6.556;2022-11-20T09:12:57;1.20;99.90
54622;DHT22;40521;53.146;6.556;2022-11-20T09:15:23;1.70;99.90
54622;DHT22;40521;53.146;6.556;2022-11-20T09:20:17;0.30;99.90
54622;DHT22;40521;53.146;6.556;2022-11-20T09:22:44;0.30;99.90
54622;DHT22;40521;53.146;6.556;2022-11-20T09:25:09;0.30;99.90
54622;DHT22;40521;53.146;6.556;2022-11-20T09:27:35;0.40;99.90
54622;DHT22;40521;53.146;6.556;2022-11-20T09:30:01;0.70;99.90
54622;DHT22;40521;53.146;6.556;2022-11-20T09:32:27;0.40;99.90
54622;DHT22;40521;53.146;6.556;2022-11-20T09:34:53;0.40;99.90
54622;DHT22;40521;53.146;6.556;2022-11-20T09:37:18;0.50;99.90
54622;DHT22;40521;53.146;6.556;2022-11-20T09:39:44;0.60;99.90
54622;DHT22;40521;53.146;6.556;2022-11-20T09:42:15;1.60;99.90
54622;DHT22;40521;53.146;6.556;2022-11-20T09:47:15;2.10;99.90
54622;DHT22;40521;53.146;6.556;2022-11-20T09:54:51;0.70;99.90
54622;DHT22;40521;53.146;6.556;2022-11-20T09:57:18;2.30;99.90
54622;DHT22;40521;53.146;6.556;2022-11-20T09:59:46;1.50;99.90
54622;DHT22;40521;53.146;6.556;2022-11-20T10:04:52;0.90;99.90
54622;DHT22;40521;53.146;6.556;2022-11-20T10:07:23;0.90;99.90
54622;DHT22;40521;53.146;6.556;2022-11-20T10:09:51;0.90;99.90
54622;DHT22;40521;53.146;6.556;2022-11-20T10:23:29;0.80;99.90
54622;DHT22;40521;53.146;6.556;2022-11-20T10:25:21;0.90;99.90
54622;DHT22;40521;53.146;6.556;2022-11-20T10:30:23;1.00;99.90
54622;DHT22;40521;53.146;6.556;2022-11-20T10:35:35;1.20;99.90
54622;DHT22;40521;53.146;6.556;2022-11-20T10:38:05;1.20;99.90
54622;DHT22;40521;53.146;6.556;2022-11-20T10:40:43;1.50;99.90
54622;DHT22;40521;53.146;6.556;2022-11-20T10:48:26;1.30;99.90
54622;DHT22;40521;53.146;6.556;2022-11-20T10:56:04;1.50;99.90
54622;DHT22;40521;53.146;6.556;2022-11-20T11:01:20;1.50;99.90
54622;DHT22;40521;53.146;6.556;2022-11-20T11:03:48;1.60;99.90
54622;DHT22;40521;53.146;6.556;2022-11-20T11:06:17;1.60;99.90
54622;DHT22;40521;53.146;6.556;2022-11-20T11:08:46;1.60;99.90
54622;DHT22;40521;53.146;6.556;2022-11-20T11:11:31;2.10;99.90
54622;DHT22;40521;53.146;6.556;2022-11-20T11:14:15;1.50;99.90
54622;DHT22;40521;53.146;6.556;2022-11-20T11:19:16;1.40;99.90
54622;DHT22;40521;53.146;6.556;2022-11-20T11:21:46;1.50;99.90
54622;DHT22;40521;53.146;6.556;2022-11-20T11:26:57;1.40;99.90
54622;DHT22;40521;53.146;6.556;2022-11-20T11:29:22;1.40;99.90
54622;DHT22;40521;53.146;6.556;2022-11-20T11:31:49;3.00;99.90
54622;DHT22;40521;53.146;6.556;2022-11-20T11:34:15;1.40;99.90
54622;DHT22;40521;53.146;6.556;2022-11-20T11:36:41;1.40;99.90
54622;DHT22;40521;53.146;6.556;2022-11-20T11:39:17;1.40;99.90
54622;DHT22;40521;53.146;6.556;2022-11-20T11:41:43;1.50;99.90
54622;DHT22;40521;53.146;6.556;2022-11-20T11:44:16;1.50;99.90
54622;DHT22;40521;53.146;6.556;2022-11-20T11:47:00;1.50;99.90
54622;DHT22;40521;53.146;6.556;2022-11-20T11:49:28;1.60;99.90
54622;DHT22;40521;53.146;6.556;2022-11-20T11:52:13;1.60;99.90
54622;DHT22;40521;53.146;6.556;2022-11-20T11:54:43;1.60;99.90
54622;DHT22;40521;53.146;6.556;2022-11-20T11:57:16;2.60;99.90
54622;DHT22;40521;53.146;6.556;2022-11-20T11:59:57;1.70;99.90
54622;DHT22;40521;53.146;6.556;2022-11-20T12:04:50;1.70;99.90
54622;DHT22;40521;53.146;6.556;2022-11-20T12:09:55;1.80;99.90
54622;DHT22;40521;53.146;6.556;2022-11-20T12:12:27;1.90;99.90
54622;DHT22;40521;53.146;6.556;2022-11-20T12:15:10;2.70;99.90
54622;DHT22;40521;53.146;6.556;2022-11-20T12:17:37;2.10;99.90
54622;DHT22;40521;53.146;6.556;2022-11-20T12:20:02;3.50;99.90
54622;DHT22;40521;53.146;6.556;2022-11-20T12:22:31;2.40;99.90
54622;DHT22;40521;53.146;6.556;2022-11-20T12:27:47;3.10;99.90
54622;DHT22;40521;53.146;6.556;2022-11-20T12:30:19;2.70;99.90
54622;DHT22;40521;53.146;6.556;2022-11-20T12:40:41;3.30;99.90
54622;DHT22;40521;53.146;6.556;2022-11-20T12:56:35;4.10;99.90
54622;DHT22;40521;53.146;6.556;2022-11-20T13:01:46;3.00;99.90
54622;DHT22;40521;53.146;6.556;2022-11-20T13:04:39;3.00;99.90
54622;DHT22;40521;53.146;6.556;2022-11-20T13:07:10;3.00;99.90
54622;DHT22;40521;53.146;6.556;2022-11-20T13:09:39;3.00;99.90
54622;DHT22;40521;53.146;6.556;2022-11-20T13:12:07;3.00;99.90
54622;DHT22;40521;53.146;6.556;2022-11-20T13:14:58;3.00;99.90
54622;DHT22;40521;53.146;6.556;2022-11-20T13:17:37;3.00;99.90
54622;DHT22;40521;53.146;6.556;2022-11-20T13:20:06;3.00;99.90
54622;DHT22;40521;53.146;6.556;2022-11-20T13:25:10;3.00;99.90
54622;DHT22;40521;53.146;6.556;2022-11-20T13:27:35;2.00;99.90
54622;DHT22;40521;53.146;6.556;2022-11-20T13:30:13;3.00;99.90
54622;DHT22;40521;53.146;6.556;2022-11-20T13:35:23;3.10;99.90
54622;DHT22;40521;53.146;6.556;2022-11-20T13:37:49;3.20;99.90
54622;DHT22;40521;53.146;6.556;2022-11-20T13:40:24;3.30;99.90
54622;DHT22;40521;53.146;6.556;2022-11-20T13:45:34;3.10;99.90
54622;DHT22;40521;53.146;6.556;2022-11-20T13:48:02;3.00;99.90
54622;DHT22;40521;53.146;6.556;2022-11-20T13:50:38;3.00;99.90
54622;DHT22;40521;53.146;6.556;2022-11-20T14:00:41;2.80;99.90
54622;DHT22;40521;53.146;6.556;2022-11-20T14:03:09;4.00;99.90
54622;DHT22;40521;53.146;6.556;2022-11-20T14:05:39;3.80;99.90
54622;DHT22;40521;53.146;6.556;2022-11-20T14:08:06;2.70;99.90
54622;DHT22;40521;53.146;6.556;2022-11-20T14:10:31;2.80;99.90
54622;DHT22;40521;53.146;6.556;2022-11-20T14:12:57;3.80;99.90
54622;DHT22;40521;53.146;6.556;2022-11-20T14:15:30;2.90;99.90
54622;DHT22;40521;53.146;6.556;2022-11-20T14:17:56;2.70;99.90
54622;DHT22;40521;53.146;6.556;2022-11-20T14:20:23;2.70;99.90
54622;DHT22;40521;53.146;6.556;2022-11-20T14:22:50;2.70;99.90
54622;DHT22;40521;53.146;6.556;2022-11-20T14:27:43;3.10;99.90
54622;DHT22;40521;53.146;6.556;2022-11-20T14:30:12;2.60;99.90
54622;DHT22;40521;53.146;6.556;2022-11-20T14:32:39;2.60;99.90
54622;DHT22;40521;53.146;6.556;2022-11-20T14:35:08;2.50;99.90
54622;DHT22;40521;53.146;6.556;2022-11-20T14:37:37;2.40;99.90
54622;DHT22;40521;53.146;6.556;2022-11-20T14:40:02;3.30;99.90
54622;DHT22;40521;53.146;6.556;2022-11-20T14:42:30;2.40;99.90
54622;DHT22;40521;53.146;6.556;2022-11-20T14:44:57;2.70;99.90
54622;DHT22;40521;53.146;6.556;2022-11-20T14:47:24;2.30;99.90
54622;DHT22;40521;53.146;6.556;2022-11-20T14:49:51;2.90;99.90
54622;DHT22;40521;53.146;6.556;2022-11-20T14:52:24;2.30;99.90
54622;DHT22;40521;53.146;6.556;2022-11-20T14:54:51;2.20;99.90
54622;DHT22;40521;53.146;6.556;2022-11-20T14:59:46;2.20;99.90
54622;DHT22;40521;53.146;6.556;2022-11-20T15:02:11;3.50;99.90
54622;DHT22;40521;53.146;6.556;2022-11-20T15:04:47;3.20;99.90
54622;DHT22;40521;53.146;6.556;2022-11-20T15:07:23;2.10;99.90
54622;DHT22;40521;53.146;6.556;2022-11-20T15:09:58;2.90;99.90
54622;DHT22;40521;53.146;6.556;2022-11-20T15:12:24;1.90;99.90
54622;DHT22;40521;53.146;6.556;2022-11-20T15:14:49;2.00;99.90
54622;DHT22;40521;53.146;6.556;2022-11-20T15:17:15;1.80;99.90
54622;DHT22;40521;53.146;6.556;2022-11-20T15:19:41;3.00;99.90
54622;DHT22;40521;53.146;6.556;2022-11-20T15:22:09;2.20;99.90
54622;DHT22;40521;53.146;6.556;2022-11-20T15:24:38;1.60;99.90
54622;DHT22;40521;53.146;6.556;2022-11-20T15:27:03;1.60;99.90
54622;DHT22;40521;53.146;6.556;2022-11-20T15:29:29;1.50;99.90
54622;DHT22;40521;53.146;6.556;2022-11-20T15:31:54;3.00;99.90
54622;DHT22;40521;53.146;6.556;2022-11-20T15:34:21;1.50;99.90
54622;DHT22;40521;53.146;6.556;2022-11-20T15:36:46;1.50;99.90
54622;DHT22;40521;53.146;6.556;2022-11-20T15:39:12;2.00;99.90
54622;DHT22;40521;53.146;6.556;2022-11-20T15:41:38;1.80;99.90
54622;DHT22;40521;53.146;6.556;2022-11-20T15:44:04;1.50;99.90
54622;DHT22;40521;53.146;6.556;2022-11-20T15:46:30;1.50;99.90
54622;DHT22;40521;53.146;6.556;2022-11-20T15:49:00;2.70;99.90
54622;DHT22;40521;53.146;6.556;2022-11-20T15:51:29;2.90;99.90
54622;DHT22;40521;53.146;6.556;2022-11-20T15:53:56;1.50;99.90
54622;DHT22;40521;53.146;6.556;2022-11-20T15:56:22;2.40;99.90
54622;DHT22;40521;53.146;6.556;2022-11-20T15:58:47;2.50;99.90
54622;DHT22;40521;53.146;6.556;2022-11-20T16:01:14;1.40;99.90
54622;DHT22;40521;53.146;6.556;2022-11-20T16:03:41;2.50;99.90
54622;DHT22;40521;53.146;6.556;2022-11-20T16:06:07;1.50;99.90
54622;DHT22;40521;53.146;6.556;2022-11-20T16:08:33;2.10;99.90
54622;DHT22;40521;53.146;6.556;2022-11-20T16:10:58;1.80;99.90
54622;DHT22;40521;53.146;6.556;2022-11-20T16:13:24;2.80;99.90
54622;DHT22;40521;53.146;6.556;2022-11-20T16:16:14;1.30;99.90
54622;DHT22;40521;53.146;6.556;2022-11-20T16:18:44;1.30;99.90
54622;DHT22;40521;53.146;6.556;2022-11-20T16:21:10;2.70;99.90
54622;DHT22;40521;53.146;6.556;2022-11-20T16:23:36;1.30;99.90
54622;DHT22;40521;53.146;6.556;2022-11-20T16:26:08;2.10;99.90
54622;DHT22;40521;53.146;6.556;2022-11-20T16:28:34;2.60;99.90
54622;DHT22;40521;53.146;6.556;2022-11-20T16:31:07;1.30;99.90
54622;DHT22;40521;53.146;6.556;2022-11-20T16:33:32;2.30;99.90
54622;DHT22;40521;53.146;6.556;2022-11-20T16:36:05;2.60;99.90
54622;DHT22;40521;53.146;6.556;2022-11-20T16:38:31;2.00;99.90
54622;DHT22;40521;53.146;6.556;2022-11-20T16:40:59;1.30;99.90
54622;DHT22;40521;53.146;6.556;2022-11-20T16:43:25;1.30;99.90
54622;DHT22;40521;53.146;6.556;2022-11-20T16:45:51;1.20;99.90
54622;DHT22;40521;53.146;6.556;2022-11-20T16:48:16;2.60;99.90
54622;DHT22;40521;53.146;6.556;2022-11-20T16:50:49;1.90;99.90
54622;DHT22;40521;53.146;6.556;2022-11-20T16:53:16;1.20;99.90
54622;DHT22;40521;53.146;6.556;2022-11-20T16:55:41;1.40;99.90
54622;DHT22;40521;53.146;6.556;2022-11-20T16:58:07;1.20;99.90
54622;DHT22;40521;53.146;6.556;2022-11-20T17:00:37;2.50;99.90
54622;DHT22;40521;53.146;6.556;2022-11-20T17:03:03;2.90;99.90
54622;DHT22;40521;53.146;6.556;2022-11-20T17:05:29;1.20;99.90
54622;DHT22;40521;53.146;6.556;2022-11-20T17:07:54;-0.10;99.90
54622;DHT22;40521;53.146;6.556;2022-11-20T17:10:20;1.60;99.90
54622;DHT22;40521;53.146;6.556;2022-11-20T17:12:47;1.20;99.90
54622;DHT22;40521;53.146;6.556;2022-11-20T17:15:13;1.20;99.90
54622;DHT22;40521;53.146;6.556;2022-11-20T17:17:39;1.90;99.90
54622;DHT22;40521;53.146;6.556;2022-11-20T17:20:04;1.20;99.90
54622;DHT22;40521;53.146;6.556;2022-11-20T17:22:30;1.20;99.90
54622;DHT22;40521;53.146;6.556;2022-11-20T17:24:56;0.50;99.90